Time;durP1;ratioP1;P1;durP2;ratioP2;P2;SDS_P1;SDS_P2;PMS_P1;PMS_P2;Temp;Humidity;BMP_temperature;BMP_pressure;BME280_temperature;BME280_humidity;BME280_pressure;Samples;Min_cycle;Max_cycle;Signal;HPM_P1;HPM_P2
2023/05/18 00:02:05;;;;;;;;;5.00;4.00;;;;;12.74;68.49;102432.88;5079844;27;45300;-72
2023/05/18 00:04:35;;;;;;;;;6.00;3.33;;;;;12.70;69.18;102431.22;5085306;27;45459;-72
2023/05/18 00:07:04;;;;;;;;;3.67;3.00;;;;;12.68;69.08;102424.22;5080717;27;46833;-72
2023/05/18 00:09:31;;;;;;;;;4.00;4.00;;;;;12.66;70.00;102426.06;5084442;27;45263;-72
2023/05/18 00:11:58;;;;;;;;;3.67;3.67;;;;;12.60;69.50;102411.16;5084020;27;45442;-72
2023/05/18 00:14:24;;;;;;;;;4.33;4.00;;;;;12.41;70.22;102380.78;5073861;27;45352;-72
2023/05/18 00:16:52;;;;;;;;;4.00;3.00;;;;;12.62;70.77;102419.97;5080814;27;45234;-72
2023/05/18 00:19:19;;;;;;;;;4.00;4.00;;;;;12.60;69.80;102418.28;5067260;28;45302;-72
2023/05/18 00:21:45;;;;;;;;;4.00;4.00;;;;;12.56;71.54;102406.00;5062511;28;45268;-72
2023/05/18 00:24:12;;;;;;;;;2.67;2.67;;;;;12.51;70.30;102416.75;5086667;27;45482;-72
2023/05/18 00:26:42;;;;;;;;;3.00;2.33;;;;;12.47;70.22;102399.19;5078987;27;45487;-72
2023/05/18 00:29:08;;;;;;;;;5.00;3.33;;;;;12.42;70.36;102399.34;5084250;27;45447;-72
2023/05/18 00:31:35;;;;;;;;;3.00;3.00;;;;;12.43;70.02;102406.34;5073042;27;45591;-72
2023/05/18 00:34:03;;;;;;;;;3.00;3.00;;;;;12.47;70.44;102415.09;5071094;27;45294;-72
2023/05/18 00:36:30;;;;;;;;;4.67;2.33;;;;;12.41;70.57;102405.53;5084969;27;46134;-72
2023/05/18 00:38:58;;;;;;;;;5.00;4.00;;;;;12.40;71.04;102406.44;5073551;27;45215;-72
2023/05/18 00:41:25;;;;;;;;;6.00;3.67;;;;;12.36;72.01;102398.63;5077779;27;45265;-72
2023/05/18 00:43:50;;;;;;;;;4.00;4.00;;;;;12.36;71.03;102406.59;5075293;27;45396;-72
2023/05/18 00:46:16;;;;;;;;;4.67;3.00;;;;;12.37;72.46;102421.59;5080809;27;45469;-72
2023/05/18 00:48:42;;;;;;;;;3.00;3.00;;;;;12.33;71.12;102412.00;5064456;27;45262;-72
2023/05/18 00:51:07;;;;;;;;;4.67;3.00;;;;;12.04;71.20;102369.53;5084547;27;45377;-72
2023/05/18 00:53:33;;;;;;;;;3.33;2.00;;;;;12.23;71.70;102408.75;5075440;27;45469;-72
2023/05/18 00:55:58;;;;;;;;;5.33;4.00;;;;;12.25;71.02;102417.50;5076654;27;46253;-72
2023/05/18 00:58:25;;;;;;;;;4.00;4.00;;;;;12.26;72.11;102423.69;5082642;27;45471;-72
2023/05/18 01:00:52;;;;;;;;;2.67;2.67;;;;;12.23;73.25;102418.47;5074976;27;45528;-72
2023/05/18 01:03:19;;;;;;;;;2.00;2.00;;;;;12.19;72.02;102423.00;5092510;27;45333;-72
2023/05/18 01:05:48;;;;;;;;;4.00;3.00;;;;;12.18;72.21;102420.38;5079929;27;45485;-72
2023/05/18 01:08:15;;;;;;;;;3.00;3.00;;;;;11.90;72.28;102367.25;5070402;27;45272;-72
2023/05/18 01:10:43;;;;;;;;;4.00;3.00;;;;;12.12;71.72;102409.94;5081343;27;45531;-72
2023/05/18 01:13:14;;;;;;;;;3.00;3.00;;;;;11.89;72.19;102374.31;5082755;27;45466;-72
2023/05/18 01:15:40;;;;;;;;;3.33;3.33;;;;;12.04;72.98;102404.88;5075731;27;46164;-72
2023/05/18 01:18:27;;;;;;;;;4.00;4.00;;;;;11.95;72.71;102395.38;5082237;27;45381;-72
2023/05/18 01:21:03;;;;;;;;;2.33;1.33;;;;;11.96;72.77;102399.75;5081967;27;45475;-72
2023/05/18 01:23:47;;;;;;;;;3.33;3.33;;;;;11.96;73.63;102401.53;5070071;27;45239;-72
2023/05/18 01:26:23;;;;;;;;;3.33;2.00;;;;;11.89;73.86;102399.97;5069345;27;45392;-72
2023/05/18 01:28:50;;;;;;;;;4.67;4.00;;;;;11.56;73.49;102351.34;5076586;27;45219;-72
2023/05/18 01:31:16;;;;;;;;;6.33;5.00;;;;;11.83;74.30;102397.47;5085354;27;45286;-72
2023/05/18 01:33:42;;;;;;;;;4.67;4.67;;;;;11.87;75.50;102405.31;5080806;27;45444;-72
2023/05/18 01:36:08;;;;;;;;;4.50;2.00;;;;;11.85;74.28;102401.81;5073297;27;45638;-72
2023/05/18 01:38:34;;;;;;;;;6.00;5.67;;;;;11.82;74.21;102407.22;5082950;27;45474;-72
2023/05/18 01:41:07;;;;;;;;;4.00;4.00;;;;;11.56;75.07;102375.19;5084767;27;45452;-72
2023/05/18 01:43:35;;;;;;;;;5.00;4.33;;;;;11.50;74.58;102367.41;5080074;27;45697;-72
2023/05/18 01:46:28;;;;;;;;;5.33;3.33;;;;;11.54;75.07;102374.38;5078883;27;45861;-72
2023/05/18 01:48:59;;;;;;;;;3.33;3.33;;;;;11.71;75.67;102413.72;5084273;27;45722;-72
2023/05/18 01:51:30;;;;;;;;;3.00;3.00;;;;;11.69;74.63;102416.38;5096194;27;45414;-72
2023/05/18 01:54:02;;;;;;;;;6.67;6.67;;;;;11.62;75.07;102403.28;5089131;27;45383;-72
2023/05/18 01:56:29;;;;;;;;;4.67;4.00;;;;;11.23;75.26;102342.50;5075856;27;46024;-72
2023/05/18 01:58:57;;;;;;;;;4.00;4.00;;;;;11.59;74.49;102408.69;5074100;27;45474;-72
2023/05/18 02:01:22;;;;;;;;;4.67;4.33;;;;;11.60;73.86;102415.72;5083519;27;45362;-72
2023/05/18 02:03:48;;;;;;;;;5.33;3.00;;;;;11.56;75.08;102416.72;5086011;27;46061;-72
2023/05/18 02:06:13;;;;;;;;;4.00;4.00;;;;;11.52;75.23;102416.78;5085303;27;45415;-72
2023/05/18 02:08:39;;;;;;;;;5.00;4.33;;;;;11.52;75.11;102407.97;5082187;27;45763;-72
2023/05/18 02:11:04;;;;;;;;;4.00;4.00;;;;;11.54;73.83;102418.53;5086420;27;45684;-72
2023/05/18 02:13:30;;;;;;;;;8.00;6.33;;;;;11.49;75.25;102429.25;5086101;27;45422;-72
2023/05/18 02:15:55;;;;;;;;;6.33;4.00;;;;;11.48;75.68;102416.94;5084518;27;45864;-71
2023/05/18 02:18:21;;;;;;;;;8.33;6.33;;;;;11.46;76.59;102419.59;5083114;27;45896;-72
2023/05/18 02:20:47;;;;;;;;;8.00;4.00;;;;;11.22;77.37;102390.22;5092188;27;45406;-72
2023/05/18 02:23:13;;;;;;;;;4.33;3.00;;;;;11.45;76.65;102427.59;5089765;27;45498;-72
2023/05/18 02:25:39;;;;;;;;;7.67;7.67;;;;;11.42;76.80;102428.53;5075038;27;45352;-72
2023/05/18 02:28:04;;;;;;;;;4.67;4.67;;;;;11.31;75.06;102420.00;5070222;27;45527;-72
2023/05/18 02:30:32;;;;;;;;;7.33;5.00;;;;;11.35;78.17;102426.94;5079261;27;45430;-72
2023/05/18 02:32:57;;;;;;;;;6.00;6.00;;;;;11.32;79.12;102426.16;5073398;27;45457;-72
2023/05/18 02:35:23;;;;;;;;;6.33;3.67;;;;;11.30;79.49;102433.25;5079377;27;45752;-72
2023/05/18 02:37:48;;;;;;;;;5.00;5.00;;;;;11.28;79.94;102432.44;5066092;27;45963;-72
2023/05/18 02:40:14;;;;;;;;;6.33;5.00;;;;;11.18;78.04;102413.25;5075491;27;45434;-72
2023/05/18 02:42:41;;;;;;;;;8.00;4.25;;;;;11.22;77.80;102440.53;5076391;27;45361;-73
2023/05/18 02:45:07;;;;;;;;;9.00;4.67;;;;;11.22;79.29;102433.44;5075157;27;45440;-72
2023/05/18 02:47:33;;;;;;;;;8.67;5.00;;;;;11.20;78.22;102429.97;5068929;27;45274;-72
2023/05/18 02:49:58;;;;;;;;;5.67;4.67;;;;;11.17;78.83;102422.09;5079891;27;45571;-73
2023/05/18 02:52:24;;;;;;;;;8.00;5.00;;;;;11.14;76.73;102424.81;5082719;27;45272;-73
2023/05/18 02:54:53;;;;;;;;;9.00;6.00;;;;;11.12;77.09;102426.63;5081874;27;45571;-72
2023/05/18 02:57:19;;;;;;;;;11.00;7.33;;;;;11.10;78.33;102430.19;5079168;27;45259;-72
2023/05/18 02:59:45;;;;;;;;;8.00;6.00;;;;;11.06;80.28;102426.75;5072664;27;45686;-73
2023/05/18 03:02:13;;;;;;;;;4.67;4.67;;;;;11.06;80.99;102426.75;5081350;27;45522;-72
2023/05/18 03:04:38;;;;;;;;;8.75;5.50;;;;;11.04;78.92;102415.34;5082452;27;45937;-72
2023/05/18 03:07:06;;;;;;;;;9.67;5.33;;;;;11.06;79.54;102423.25;5086861;27;45389;-72
2023/05/18 03:09:31;;;;;;;;;6.00;6.00;;;;;10.84;80.17;102386.69;5068868;27;45222;-73
2023/05/18 03:11:56;;;;;;;;;6.75;5.50;;;;;10.99;79.03;102419.88;5080751;27;45485;-72
2023/05/18 03:14:22;;;;;;;;;8.50;8.25;;;;;10.95;78.81;102421.72;5089424;27;46077;-72
2023/05/18 03:16:52;;;;;;;;;7.00;7.00;;;;;10.92;78.40;102424.44;5080376;27;45664;-73
2023/05/18 03:19:17;;;;;;;;;9.50;8.00;;;;;10.85;80.18;102414.91;5073564;27;46743;-72
2023/05/18 03:21:43;;;;;;;;;7.25;4.50;;;;;10.90;79.66;102417.44;5077203;27;45467;-72
2023/05/18 03:24:08;;;;;;;;;8.75;7.00;;;;;10.89;81.19;102418.34;5075740;27;47266;-72
2023/05/18 03:26:33;;;;;;;;;9.25;8.25;;;;;10.88;81.10;102417.47;5067272;27;45377;-73
2023/05/18 03:29:00;;;;;;;;;7.50;7.50;;;;;10.83;79.65;102415.84;5080476;27;45340;-72
2023/05/18 03:31:26;;;;;;;;;6.00;6.00;;;;;10.38;79.69;102343.63;5086412;27;45246;-74
2023/05/18 03:33:51;;;;;;;;;10.75;8.00;;;;;10.82;82.13;102416.75;5072531;27;45919;-72
2023/05/18 03:36:17;;;;;;;;;3.00;3.00;;;;;10.79;81.42;102414.16;5072240;27;45393;-72
2023/05/18 03:38:45;;;;;;;;;8.33;7.67;;;;;10.77;81.02;102416.84;5070180;27;45425;-72
2023/05/18 03:41:11;;;;;;;;;9.25;6.00;;;;;10.70;80.21;102404.63;5073988;27;45708;-72
2023/05/18 03:43:36;;;;;;;;;10.75;9.25;;;;;10.70;82.66;102407.28;5076698;27;45500;-72
2023/05/18 03:46:02;;;;;;;;;10.00;7.50;;;;;10.68;82.29;102417.03;5081889;27;45613;-72
2023/05/18 03:48:28;;;;;;;;;9.75;7.75;;;;;10.67;81.54;102422.34;5078450;27;45894;-72
2023/05/18 03:50:53;;;;;;;;;9.00;7.25;;;;;10.66;80.64;102418.88;5080104;27;45536;-72
2023/05/18 03:53:20;;;;;;;;;12.50;7.00;;;;;10.60;82.50;102404.91;5080999;27;47013;-72
2023/05/18 03:55:48;;;;;;;;;9.50;7.25;;;;;10.65;83.30;102417.13;5079914;27;45446;-72
2023/05/18 03:58:13;;;;;;;;;4.75;3.25;;;;;10.56;81.43;102406.75;5065159;27;45270;-72
2023/05/18 04:00:39;;;;;;;;;8.25;4.75;;;;;10.62;83.72;102417.19;5070720;27;45508;-72
2023/05/18 04:03:05;;;;;;;;;9.25;8.50;;;;;10.49;82.85;102398.94;5079122;27;47500;-72
2023/05/18 04:05:31;;;;;;;;;9.25;7.50;;;;;10.59;81.30;102421.66;5085181;27;45377;-72
2023/05/18 04:07:56;;;;;;;;;8.25;6.00;;;;;10.53;82.02;102419.16;5064915;27;45291;-72
2023/05/18 04:10:22;;;;;;;;;6.50;6.25;;;;;10.56;82.38;102421.72;5081630;27;45411;-72
2023/05/18 04:12:48;;;;;;;;;8.00;8.00;;;;;10.52;81.77;102415.63;5076749;27;45875;-72
2023/05/18 04:15:13;;;;;;;;;8.00;7.00;;;;;10.29;82.27;102384.38;5077762;27;45516;-73
2023/05/18 04:17:44;;;;;;;;;11.50;8.50;;;;;10.25;83.84;102381.81;5070532;27;45263;-72
2023/05/18 04:20:13;;;;;;;;;15.50;10.00;;;;;10.24;83.10;102383.59;5071975;27;45520;-72
2023/05/18 04:22:46;;;;;;;;;11.00;5.75;;;;;10.40;82.11;102413.25;5089559;27;46107;-72
2023/05/18 04:25:13;;;;;;;;;8.50;7.25;;;;;10.46;83.03;102429.00;5087646;27;45483;-73
2023/05/18 04:27:44;;;;;;;;;7.50;7.50;;;;;10.43;81.02;102431.69;5074688;27;45319;-72
2023/05/18 04:30:10;;;;;;;;;10.25;7.75;;;;;10.37;81.15;102427.38;5080345;27;45617;-72
2023/05/18 04:32:36;;;;;;;;;8.50;8.00;;;;;10.15;81.89;102388.19;5076481;27;45554;-73
2023/05/18 04:35:06;;;;;;;;;11.50;9.50;;;;;10.42;82.27;102438.75;5087544;27;45354;-72
2023/05/18 04:37:32;;;;;;;;;11.00;9.67;;;;;10.44;83.74;102438.72;5074233;27;45160;-73
2023/05/18 04:40:00;;;;;;;;;10.25;8.00;;;;;10.43;84.01;102437.88;5076738;27;45389;-72
2023/05/18 04:42:27;;;;;;;;;11.00;7.50;;;;;9.97;83.67;102356.81;5070926;27;46009;-72
2023/05/18 04:44:53;;;;;;;;;12.50;8.00;;;;;10.43;81.48;102437.88;5079171;27;45448;-72
2023/05/18 04:47:20;;;;;;;;;9.75;9.75;;;;;10.48;82.96;102444.81;5079176;27;45483;-72
2023/05/18 04:49:47;;;;;;;;;10.75;9.00;;;;;10.48;84.18;102442.16;5082534;27;45339;-72
2023/05/18 04:52:13;;;;;;;;;10.75;7.75;;;;;10.50;84.44;102440.38;5077061;27;45676;-72
2023/05/18 04:54:40;;;;;;;;;9.50;6.75;;;;;10.53;84.16;102451.78;5079745;27;45333;-72
2023/05/18 04:57:05;;;;;;;;;6.50;4.50;;;;;10.48;84.33;102444.81;5071940;27;45389;-72
2023/05/18 04:59:35;;;;;;;;;9.25;9.00;;;;;10.54;85.59;102448.19;5089128;27;45501;-72
2023/05/18 05:02:02;;;;;;;;;12.25;9.50;;;;;10.60;85.53;102457.81;5087471;27;45334;-72
2023/05/18 05:04:27;;;;;;;;;11.75;8.25;;;;;10.43;81.38;102424.66;5070534;27;45710;-72
2023/05/18 05:06:52;;;;;;;;;10.50;9.25;;;;;10.64;80.39;102460.34;5088428;27;45559;-72
2023/05/18 05:09:18;;;;;;;;;11.00;8.25;;;;;10.65;83.32;102454.16;5064843;27;45358;-73
2023/05/18 05:11:43;;;;;;;;;9.75;9.25;;;;;10.72;80.84;102458.41;5095652;27;46153;-73
2023/05/18 05:14:09;;;;;;;;;14.00;9.25;;;;;10.74;82.49;102461.00;5071007;27;45249;-72
2023/05/18 05:16:35;;;;;;;;;10.25;8.50;;;;;10.79;82.58;102461.81;5068952;27;45363;-73
2023/05/18 05:19:01;;;;;;;;;9.00;7.50;;;;;10.85;79.62;102464.31;5083827;27;45455;-72
2023/05/18 05:21:27;;;;;;;;;9.25;8.00;;;;;10.88;80.55;102461.59;5081770;27;45283;-72
2023/05/18 05:23:52;;;;;;;;;11.00;11.00;;;;;10.91;82.83;102467.69;5073829;27;45377;-72
2023/05/18 05:26:18;;;;;;;;;14.75;9.00;;;;;10.96;79.80;102464.97;5069467;27;45396;-72
2023/05/18 05:28:43;;;;;;;;;10.75;9.50;;;;;11.05;81.66;102464.75;5080171;27;45266;-73
2023/05/18 05:31:08;;;;;;;;;16.00;11.75;;;;;11.04;80.34;102452.41;5073792;27;45245;-72
2023/05/18 05:33:34;;;;;;;;;13.25;9.75;;;;;11.10;77.77;102464.63;5076178;27;45365;-72
2023/05/18 05:35:59;;;;;;;;;9.50;9.00;;;;;10.70;78.43;102391.41;5075068;27;45426;-73
2023/05/18 05:38:25;;;;;;;;;13.25;10.25;;;;;11.13;78.27;102462.78;5076647;27;45258;-73
2023/05/18 05:40:50;;;;;;;;;13.50;11.00;;;;;11.22;77.47;102467.00;5085625;27;45487;-73
2023/05/18 05:43:16;;;;;;;;;9.50;8.25;;;;;11.27;78.20;102470.41;5071660;27;45549;-72
2023/05/18 05:45:42;;;;;;;;;14.25;9.00;;;;;11.35;79.03;102481.72;5090026;27;45313;-72
2023/05/18 05:48:08;;;;;;;;;15.75;9.00;;;;;11.35;76.04;102458.72;5063891;27;45499;-72
2023/05/18 05:50:34;;;;;;;;;9.75;9.75;;;;;11.48;76.61;102470.75;5075406;27;46030;-75
2023/05/18 05:52:59;;;;;;;;;14.50;10.75;;;;;11.56;76.84;102464.41;5084030;27;45609;-72
2023/05/18 05:55:25;;;;;;;;;13.67;10.33;;;;;11.66;75.38;102464.16;5084217;27;45482;-73
2023/05/18 05:57:50;;;;;;;;;11.00;10.00;;;;;11.80;76.01;102471.78;5069789;27;45579;-72
2023/05/18 06:00:16;;;;;;;;;10.25;10.25;;;;;11.86;75.86;102468.97;5076800;27;45405;-72
2023/05/18 06:02:41;;;;;;;;;10.75;10.25;;;;;12.01;75.27;102471.22;5079350;27;45372;-72
2023/05/18 06:05:08;;;;;;;;;11.00;9.67;;;;;12.11;75.87;102461.22;5077035;27;45318;-73
2023/05/18 06:07:34;;;;;;;;;16.25;9.50;;;;;12.21;74.40;102465.38;5075217;27;45827;-72
2023/05/18 06:09:59;;;;;;;;;9.67;9.00;;;;;12.29;72.60;102476.66;5080927;27;45564;-72
2023/05/18 06:12:24;;;;;;;;;9.75;9.75;;;;;12.29;74.28;102458.09;5080912;27;46781;-72
2023/05/18 06:14:56;;;;;;;;;9.00;9.00;;;;;11.98;74.32;102412.97;5083251;27;45878;-72
2023/05/18 06:17:25;;;;;;;;;8.00;6.67;;;;;12.46;72.18;102475.28;5082012;27;45325;-73
2023/05/18 06:19:51;;;;;;;;;4.67;4.67;;;;;12.49;73.36;102474.31;5082185;27;45270;-72
2023/05/18 06:22:16;;;;;;;;;7.33;7.33;;;;;12.37;72.68;102437.50;5077206;27;45208;-72
2023/05/18 06:24:41;;;;;;;;;8.67;8.67;;;;;12.73;73.91;102480.72;5077332;27;45892;-72
2023/05/18 06:27:07;;;;;;;;;14.25;11.00;;;;;12.73;70.11;102459.47;5077801;27;45413;-72
2023/05/18 06:29:32;;;;;;;;;7.67;5.00;;;;;12.94;69.80;102477.41;5069951;27;45379;-72
2023/05/18 06:31:58;;;;;;;;;10.33;7.00;;;;;12.99;70.43;102465.72;5072431;27;45290;-72
2023/05/18 06:34:23;;;;;;;;;11.67;10.33;;;;;13.05;66.27;102478.81;5085869;27;45341;-72
2023/05/18 06:36:48;;;;;;;;;12.00;9.33;;;;;13.04;67.44;102476.22;5094441;27;45591;-73
2023/05/18 06:39:14;;;;;;;;;16.67;11.33;;;;;12.98;68.27;102469.31;5071237;27;46424;-72
2023/05/18 06:41:39;;;;;;;;;12.00;10.00;;;;;13.05;67.28;102462.03;5081574;27;45576;-72
2023/05/18 06:44:05;;;;;;;;;11.33;7.33;;;;;13.12;66.47;102473.38;5076709;27;45512;-72
2023/05/18 06:46:30;;;;;;;;;11.33;9.00;;;;;13.18;69.73;102479.34;5065040;27;45333;-73
2023/05/18 06:48:56;;;;;;;;;7.67;6.00;;;;;13.29;68.87;102482.53;5092758;27;45934;-72
2023/05/18 06:51:21;;;;;;;;;9.67;7.67;;;;;13.36;66.86;102481.41;5079495;27;45417;-72
2023/05/18 06:53:47;;;;;;;;;9.00;8.67;;;;;13.37;65.57;102477.84;5076732;27;45384;-73
2023/05/18 06:56:12;;;;;;;;;10.33;10.33;;;;;13.44;66.92;102474.09;5075017;27;45321;-72
2023/05/18 06:58:39;;;;;;;;;14.33;10.00;;;;;13.56;66.95;102473.69;5077647;27;47718;-72
2023/05/18 07:01:04;;;;;;;;;16.33;10.33;;;;;13.65;66.08;102464.50;5070558;27;45433;-72
2023/05/18 07:03:31;;;;;;;;;13.67;8.67;;;;;13.67;64.38;102467.13;5088815;27;45598;-73
2023/05/18 07:05:56;;;;;;;;;10.67;8.00;;;;;13.82;63.85;102463.94;5090101;27;45485;-72
2023/05/18 07:08:23;;;;;;;;;6.00;6.00;;;;;14.02;63.85;102480.97;5079227;27;45381;-72
2023/05/18 07:10:49;;;;;;;;;10.67;9.33;;;;;14.14;65.68;102462.81;5081461;27;45463;-73
2023/05/18 07:13:15;;;;;;;;;9.33;8.00;;;;;14.33;63.23;102467.47;5114438;27;45332;-73
2023/05/18 07:15:40;;;;;;;;;8.67;7.33;;;;;14.53;61.50;102474.72;5086314;27;45294;-73
2023/05/18 07:18:06;;;;;;;;;14.67;8.00;;;;;14.57;62.65;102465.69;5078216;27;45539;-73
2023/05/18 07:20:31;;;;;;;;;16.67;8.33;;;;;14.88;59.94;102468.97;5086295;27;45296;-73
2023/05/18 07:22:56;;;;;;;;;8.00;6.00;;;;;15.04;58.98;102466.56;5088141;27;45441;-72
2023/05/18 07:25:22;;;;;;;;;7.33;6.00;;;;;15.20;59.90;102478.34;5080146;27;45328;-73
2023/05/18 07:27:48;;;;;;;;;11.00;8.33;;;;;15.34;59.33;102470.69;5072712;27;46317;-73
2023/05/18 07:30:13;;;;;;;;;8.00;8.00;;;;;15.46;59.32;102461.31;5076786;27;45455;-73
2023/05/18 07:32:39;;;;;;;;;9.00;8.00;;;;;15.70;58.86;102454.13;5083066;27;45206;-72
2023/05/18 07:35:04;;;;;;;;;10.00;8.00;;;;;15.82;58.59;102443.78;5082439;27;45277;-73
2023/05/18 07:37:30;;;;;;;;;8.67;7.33;;;;;16.02;57.11;102456.28;5074576;27;45394;-73
2023/05/18 07:39:55;;;;;;;;;8.00;6.67;;;;;16.16;55.78;102473.41;5068149;27;45453;-73
2023/05/18 07:42:21;;;;;;;;;11.00;8.00;;;;;16.24;57.48;102475.75;5066826;27;45538;-73
2023/05/18 07:44:46;;;;;;;;;9.33;7.67;;;;;16.36;55.23;102461.00;5083404;27;45345;-73
2023/05/18 07:47:12;;;;;;;;;9.67;7.00;;;;;16.21;53.67;102426.97;5087949;27;45481;-73
2023/05/18 07:49:38;;;;;;;;;11.67;9.33;;;;;16.50;54.80;102455.88;5087439;27;46140;-73
2023/05/18 07:52:07;;;;;;;;;10.00;7.00;;;;;16.65;54.78;102461.41;5072128;27;45375;-73
2023/05/18 07:54:32;;;;;;;;;11.67;7.00;;;;;16.74;53.01;102465.50;5085895;27;45463;-72
2023/05/18 07:56:58;;;;;;;;;7.33;7.33;;;;;16.87;53.15;102455.97;5074446;27;45528;-73
2023/05/18 07:59:23;;;;;;;;;10.00;7.00;;;;;16.83;53.47;102434.78;5080868;27;45374;-73
2023/05/18 08:01:48;;;;;;;;;9.00;9.00;;;;;16.99;52.23;102439.34;5091703;27;45312;-72
2023/05/18 08:04:13;;;;;;;;;9.00;5.00;;;;;16.82;53.80;102377.81;5080872;27;45602;-73
2023/05/18 08:06:39;;;;;;;;;7.67;5.33;;;;;17.34;51.66;102450.16;5079785;27;46177;-73
2023/05/18 08:09:05;;;;;;;;;6.33;6.00;;;;;17.53;52.88;102456.31;5082560;27;45547;-72
2023/05/18 08:11:32;;;;;;;;;9.67;6.33;;;;;17.64;51.53;102456.66;5072689;27;45460;-73
2023/05/18 08:13:57;;;;;;;;;8.00;6.00;;;;;17.76;50.53;102456.06;5104555;27;46068;-73
2023/05/18 08:16:22;;;;;;;;;13.67;9.67;;;;;17.59;48.59;102439.97;5078193;27;45369;-73
2023/05/18 08:18:48;;;;;;;;;9.00;6.33;;;;;17.75;51.88;102448.09;5080879;27;46064;-73
2023/05/18 08:21:13;;;;;;;;;8.67;8.00;;;;;17.66;50.18;102415.53;5075637;27;45422;-72
2023/05/18 08:23:39;;;;;;;;;10.67;5.33;;;;;17.97;51.45;102440.69;5077651;27;46225;-73
2023/05/18 08:26:04;;;;;;;;;5.00;5.00;;;;;17.99;49.78;102445.03;5077364;27;45980;-73
2023/05/18 08:28:30;;;;;;;;;11.00;6.67;;;;;17.94;49.22;102439.03;5084467;27;45302;-73
2023/05/18 08:30:56;;;;;;;;;8.00;7.00;;;;;17.85;48.34;102426.13;5071716;27;45502;-72
2023/05/18 08:33:22;;;;;;;;;6.00;5.67;;;;;17.78;49.12;102427.41;5078340;27;45742;-72
2023/05/18 08:35:47;;;;;;;;;8.00;7.67;;;;;17.56;48.58;102411.59;5065196;27;46125;-72
2023/05/18 08:38:13;;;;;;;;;8.33;8.00;;;;;17.59;49.63;102427.47;5085216;27;45985;-72
2023/05/18 08:40:45;;;;;;;;;7.33;5.33;;;;;17.62;49.50;102430.00;5074544;27;45185;-73
2023/05/18 08:43:19;;;;;;;;;7.67;6.33;;;;;17.62;48.93;102439.81;5073812;27;45487;-71
2023/05/18 08:45:54;;;;;;;;;9.33;9.00;;;;;17.30;49.38;102433.38;5072978;27;45629;-72
2023/05/18 08:48:21;;;;;;;;;8.33;4.00;;;;;17.48;50.30;102445.84;5067898;27;45525;-73
2023/05/18 08:50:48;;;;;;;;;6.00;5.00;;;;;17.53;50.45;102434.91;5084572;27;45341;-73
2023/05/18 08:53:15;;;;;;;;;6.33;6.00;;;;;17.56;49.03;102441.00;5078935;28;45443;-73
2023/05/18 08:55:42;;;;;;;;;6.67;5.67;;;;;17.58;47.84;102427.53;5073556;28;45373;-72
2023/05/18 08:58:10;;;;;;;;;8.67;6.00;;;;;17.70;47.56;102434.97;5087009;27;45414;-72
2023/05/18 09:00:36;;;;;;;;;8.33;7.00;;;;;17.70;47.83;102438.47;5074316;27;45700;-73
2023/05/18 09:03:03;;;;;;;;;11.00;8.33;;;;;17.73;48.10;102432.13;5073647;27;45339;-72
2023/05/18 09:05:29;;;;;;;;;9.33;8.33;;;;;17.86;49.10;102427.88;5071609;27;45633;-73
2023/05/18 09:07:55;;;;;;;;;7.00;6.33;;;;;17.92;46.78;102424.88;5077933;27;45727;-72
2023/05/18 09:10:22;;;;;;;;;4.00;4.00;;;;;17.99;47.72;102438.81;5067501;27;45512;-73
2023/05/18 09:12:49;;;;;;;;;9.00;7.00;;;;;18.06;46.91;102424.16;5090980;27;45285;-73
2023/05/18 09:15:16;;;;;;;;;6.33;6.33;;;;;18.20;48.78;102432.31;5075559;27;46550;-72
2023/05/18 09:17:41;;;;;;;;;8.67;8.00;;;;;18.26;45.08;102426.63;5067653;27;45361;-73
2023/05/18 09:20:07;;;;;;;;;9.33;8.00;;;;;18.20;45.15;102435.00;5075825;27;45599;-73
2023/05/18 09:22:40;;;;;;;;;6.00;6.00;;;;;18.12;47.84;102415.81;5071953;27;47430;-72
2023/05/18 09:25:09;;;;;;;;;9.33;8.00;;;;;18.40;48.11;102433.94;5076628;27;45414;-72
2023/05/18 09:27:35;;;;;;;;;9.33;7.67;;;;;18.51;45.61;102434.25;5067816;27;45352;-73
2023/05/18 09:30:00;;;;;;;;;9.67;9.00;;;;;18.55;45.84;102425.13;5063649;28;45317;-73
2023/05/18 09:32:26;;;;;;;;;11.33;9.33;;;;;18.63;45.49;102433.59;5069949;27;45486;-72
2023/05/18 09:34:52;;;;;;;;;11.67;8.33;;;;;18.70;47.17;102425.13;5067948;27;45969;-73
2023/05/18 09:37:19;;;;;;;;;10.33;9.00;;;;;18.88;44.97;102433.94;5076985;27;45479;-72
2023/05/18 09:39:58;;;;;;;;;9.00;9.00;;;;;18.86;45.72;102422.47;5073508;27;45288;-73
2023/05/18 09:42:48;;;;;;;;;11.67;10.00;;;;;18.86;46.14;102421.59;5077604;27;45305;-73
2023/05/18 09:45:15;;;;;;;;;9.67;7.67;;;;;19.09;45.63;102430.06;5079915;28;46199;-73
2023/05/18 09:47:40;;;;;;;;;12.67;10.67;;;;;19.12;45.41;102420.97;5078060;27;45498;-72
2023/05/18 09:50:06;;;;;;;;;12.33;10.00;;;;;19.33;45.62;102421.56;5080139;27;46044;-72
2023/05/18 09:52:43;;;;;;;;;12.33;8.00;;;;;19.36;45.55;102416.03;5075392;27;45477;-72
2023/05/18 09:55:14;;;;;;;;;7.67;7.67;;;;;19.46;46.33;102406.53;5080742;27;46344;-73
2023/05/18 09:57:44;;;;;;;;;13.00;8.00;;;;;19.61;44.16;102413.66;5074996;27;45416;-72
2023/05/18 10:00:11;;;;;;;;;11.00;8.00;;;;;19.67;43.16;102416.84;5075148;27;45300;-73
2023/05/18 10:02:42;;;;;;;;;10.33;9.33;;;;;19.60;44.63;102418.16;5080097;27;45242;-73
2023/05/18 10:05:29;;;;;;;;;12.67;12.00;;;;;19.74;44.70;102420.03;5075603;27;45359;-73
2023/05/18 10:07:55;;;;;;;;;8.67;8.67;;;;;19.77;44.28;102415.34;5076326;27;45366;-73
2023/05/18 10:10:25;;;;;;;;;12.67;10.67;;;;;19.61;43.97;102416.34;5068073;27;45398;-71
2023/05/18 10:12:52;;;;;;;;;7.00;7.00;;;;;19.58;43.75;102416.53;5076364;28;45724;-73
2023/05/18 10:15:21;;;;;;;;;11.00;9.33;;;;;19.69;43.42;102408.72;5073726;28;47097;-73
2023/05/18 10:17:50;;;;;;;;;12.33;10.67;;;;;19.61;42.03;102405.59;5075439;28;45316;-73
2023/05/18 10:20:22;;;;;;;;;11.00;9.67;;;;;19.70;43.51;102405.91;5075363;28;45392;-73
2023/05/18 10:22:49;;;;;;;;;11.67;8.67;;;;;19.68;44.90;102401.59;5096987;27;45484;-72
2023/05/18 10:25:19;;;;;;;;;9.67;9.67;;;;;19.60;43.93;102401.22;5081494;28;46247;-72
2023/05/18 10:27:48;;;;;;;;;13.33;9.67;;;;;19.70;42.94;102407.72;5074237;28;45355;-73
2023/05/18 10:30:14;;;;;;;;;10.33;8.33;;;;;19.64;44.84;102398.22;5075239;28;45353;-72
2023/05/18 10:32:41;;;;;;;;;8.67;8.00;;;;;19.42;44.62;102364.72;5073928;27;45321;-73
2023/05/18 10:35:08;;;;;;;;;11.00;10.00;;;;;19.44;42.17;102393.19;5071202;27;45991;-73
2023/05/18 10:37:38;;;;;;;;;8.00;6.67;;;;;19.47;45.24;102392.16;5087633;27;45342;-73
2023/05/18 10:40:06;;;;;;;;;10.00;8.67;;;;;19.49;42.49;102412.56;5090119;27;45249;-72
2023/05/18 10:42:32;;;;;;;;;10.33;10.33;;;;;19.37;41.74;102385.56;5071806;27;45303;-73
2023/05/18 10:45:00;;;;;;;;;8.00;8.00;;;;;19.37;41.82;102388.25;5071384;27;46034;-73
2023/05/18 10:47:29;;;;;;;;;13.67;8.67;;;;;19.39;41.49;102380.97;5076874;27;45238;-73
2023/05/18 10:49:57;;;;;;;;;9.33;9.33;;;;;19.56;43.10;102394.28;5097568;27;45386;-73
2023/05/18 10:52:30;;;;;;;;;11.67;10.00;;;;;19.72;42.83;102392.41;5075786;28;45330;-73
2023/05/18 10:54:57;;;;;;;;;13.33;10.00;;;;;19.77;42.26;102384.94;5078712;27;45466;-72
2023/05/18 10:57:25;;;;;;;;;11.00;8.67;;;;;19.84;40.96;102388.97;5079437;27;45358;-72
2023/05/18 10:59:50;;;;;;;;;8.67;5.67;;;;;19.88;42.08;102385.16;5075159;27;45518;-72
2023/05/18 11:02:17;;;;;;;;;9.67;8.67;;;;;19.94;40.37;102368.66;5075799;27;45423;-72
2023/05/18 11:04:46;;;;;;;;;6.00;6.00;;;;;20.19;42.70;102378.75;5066763;27;46115;-72
2023/05/18 11:07:12;;;;;;;;;10.00;8.67;;;;;20.35;40.85;102386.75;5068018;28;45244;-71
2023/05/18 11:09:42;;;;;;;;;9.33;8.00;;;;;20.22;40.99;102376.72;5079816;27;45337;-72
2023/05/18 11:12:12;;;;;;;;;8.00;8.00;;;;;20.32;40.29;102382.41;5077913;27;45456;-73
2023/05/18 11:14:48;;;;;;;;;7.67;7.00;;;;;20.35;39.87;102381.38;5071382;27;45379;-72
2023/05/18 11:17:25;;;;;;;;;10.00;5.67;;;;;20.45;39.70;102388.75;5080120;28;45928;-73
2023/05/18 11:20:10;;;;;;;;;10.00;7.00;;;;;20.46;39.40;102385.13;5070494;27;45337;-72
2023/05/18 11:22:40;;;;;;;;;9.33;7.33;;;;;20.48;39.84;102375.16;5078889;27;45521;-72